sensor_id;sensor_type;location;lat;lon;timestamp;P1;durP1;ratioP1;P2;durP2;ratioP2
37411;SDS011;23278;52.110;6.050;2023-02-18T00:00:18;55.08;;;30.65;;
37411;SDS011;23278;52.110;6.050;2023-02-18T00:02:45;53.15;;;30.55;;
37411;SDS011;23278;52.110;6.050;2023-02-18T00:05:12;53.35;;;29.60;;
37411;SDS011;23278;52.110;6.050;2023-02-18T00:07:39;59.17;;;30.58;;
37411;SDS011;23278;52.110;6.050;2023-02-18T00:10:06;51.20;;;28.60;;
37411;SDS011;23278;52.110;6.050;2023-02-18T00:12:37;51.80;;;29.45;;
37411;SDS011;23278;52.110;6.050;2023-02-18T00:15:06;56.53;;;31.65;;
37411;SDS011;23278;52.110;6.050;2023-02-18T00:17:32;46.13;;;29.65;;
37411;SDS011;23278;52.110;6.050;2023-02-18T00:19:58;53.95;;;32.20;;
37411;SDS011;23278;52.110;6.050;2023-02-18T00:22:24;48.55;;;27.75;;
37411;SDS011;23278;52.110;6.050;2023-02-18T00:24:50;51.50;;;27.52;;
37411;SDS011;23278;52.110;6.050;2023-02-18T00:27:16;54.33;;;30.50;;
37411;SDS011;23278;52.110;6.050;2023-02-18T00:29:45;52.00;;;29.40;;
37411;SDS011;23278;52.110;6.050;2023-02-18T00:32:13;59.53;;;28.02;;
37411;SDS011;23278;52.110;6.050;2023-02-18T00:34:39;52.33;;;28.02;;
37411;SDS011;23278;52.110;6.050;2023-02-18T00:37:05;50.53;;;28.38;;
37411;SDS011;23278;52.110;6.050;2023-02-18T00:39:31;62.22;;;28.08;;
37411;SDS011;23278;52.110;6.050;2023-02-18T00:41:57;50.97;;;28.10;;
37411;SDS011;23278;52.110;6.050;2023-02-18T00:44:24;53.70;;;27.45;;
37411;SDS011;23278;52.110;6.050;2023-02-18T00:46:50;49.40;;;27.67;;
37411;SDS011;23278;52.110;6.050;2023-02-18T00:49:17;45.58;;;27.25;;
37411;SDS011;23278;52.110;6.050;2023-02-18T00:51:43;51.70;;;28.73;;
37411;SDS011;23278;52.110;6.050;2023-02-18T00:54:09;42.25;;;27.13;;
37411;SDS011;23278;52.110;6.050;2023-02-18T00:56:35;51.10;;;29.45;;
37411;SDS011;23278;52.110;6.050;2023-02-18T00:59:01;49.15;;;29.33;;
37411;SDS011;23278;52.110;6.050;2023-02-18T01:01:27;52.20;;;27.55;;
37411;SDS011;23278;52.110;6.050;2023-02-18T01:03:52;49.83;;;27.70;;
37411;SDS011;23278;52.110;6.050;2023-02-18T01:06:19;48.05;;;26.33;;
37411;SDS011;23278;52.110;6.050;2023-02-18T01:08:46;49.20;;;26.65;;
37411;SDS011;23278;52.110;6.050;2023-02-18T01:11:13;54.15;;;27.83;;
37411;SDS011;23278;52.110;6.050;2023-02-18T01:13:39;65.00;;;28.90;;
37411;SDS011;23278;52.110;6.050;2023-02-18T01:16:06;57.67;;;27.13;;
37411;SDS011;23278;52.110;6.050;2023-02-18T01:18:32;60.92;;;27.25;;
37411;SDS011;23278;52.110;6.050;2023-02-18T01:20:58;59.92;;;27.73;;
37411;SDS011;23278;52.110;6.050;2023-02-18T01:23:24;53.45;;;27.48;;
37411;SDS011;23278;52.110;6.050;2023-02-18T01:25:50;67.55;;;31.52;;
37411;SDS011;23278;52.110;6.050;2023-02-18T01:28:17;61.25;;;29.50;;
37411;SDS011;23278;52.110;6.050;2023-02-18T01:30:45;60.88;;;29.23;;
37411;SDS011;23278;52.110;6.050;2023-02-18T01:33:11;63.20;;;27.92;;
37411;SDS011;23278;52.110;6.050;2023-02-18T01:35:38;66.70;;;31.88;;
37411;SDS011;23278;52.110;6.050;2023-02-18T01:38:05;53.75;;;26.52;;
37411;SDS011;23278;52.110;6.050;2023-02-18T01:40:31;62.80;;;30.45;;
37411;SDS011;23278;52.110;6.050;2023-02-18T01:42:58;61.78;;;27.58;;
37411;SDS011;23278;52.110;6.050;2023-02-18T01:48:07;57.97;;;28.73;;
37411;SDS011;23278;52.110;6.050;2023-02-18T01:50:36;53.58;;;26.35;;
37411;SDS011;23278;52.110;6.050;2023-02-18T01:53:06;55.17;;;27.40;;
37411;SDS011;23278;52.110;6.050;2023-02-18T01:55:33;54.42;;;26.92;;
37411;SDS011;23278;52.110;6.050;2023-02-18T01:58:00;62.65;;;25.08;;
37411;SDS011;23278;52.110;6.050;2023-02-18T02:00:28;47.45;;;24.33;;
37411;SDS011;23278;52.110;6.050;2023-02-18T02:02:55;46.97;;;23.38;;
37411;SDS011;23278;52.110;6.050;2023-02-18T02:05:32;48.95;;;23.15;;
37411;SDS011;23278;52.110;6.050;2023-02-18T02:16:05;34.70;;;18.13;;
37411;SDS011;23278;52.110;6.050;2023-02-18T02:18:48;36.75;;;19.33;;
37411;SDS011;23278;52.110;6.050;2023-02-18T02:24:48;36.22;;;17.50;;
37411;SDS011;23278;52.110;6.050;2023-02-18T02:27:28;32.65;;;16.55;;
37411;SDS011;23278;52.110;6.050;2023-02-18T02:30:12;36.15;;;18.70;;
37411;SDS011;23278;52.110;6.050;2023-02-18T02:38:54;36.05;;;18.50;;
37411;SDS011;23278;52.110;6.050;2023-02-18T02:46:49;34.20;;;18.88;;
37411;SDS011;23278;52.110;6.050;2023-02-18T02:52:22;44.50;;;21.42;;
37411;SDS011;23278;52.110;6.050;2023-02-18T02:54:52;50.05;;;23.60;;
37411;SDS011;23278;52.110;6.050;2023-02-18T02:59:56;48.05;;;23.30;;
37411;SDS011;23278;52.110;6.050;2023-02-18T03:16:00;41.55;;;23.67;;
37411;SDS011;23278;52.110;6.050;2023-02-18T03:18:42;45.92;;;23.55;;
37411;SDS011;23278;52.110;6.050;2023-02-18T03:21:14;41.78;;;21.48;;
37411;SDS011;23278;52.110;6.050;2023-02-18T03:23:56;42.72;;;21.50;;
37411;SDS011;23278;52.110;6.050;2023-02-18T03:26:28;40.83;;;22.75;;
37411;SDS011;23278;52.110;6.050;2023-02-18T03:28:57;44.40;;;23.80;;
37411;SDS011;23278;52.110;6.050;2023-02-18T03:31:27;49.63;;;24.55;;
37411;SDS011;23278;52.110;6.050;2023-02-18T03:34:01;46.53;;;23.77;;
37411;SDS011;23278;52.110;6.050;2023-02-18T03:36:32;42.03;;;23.30;;
37411;SDS011;23278;52.110;6.050;2023-02-18T03:39:01;54.83;;;24.98;;
37411;SDS011;23278;52.110;6.050;2023-02-18T03:41:40;38.67;;;23.65;;
37411;SDS011;23278;52.110;6.050;2023-02-18T03:44:07;39.20;;;22.70;;
37411;SDS011;23278;52.110;6.050;2023-02-18T03:46:35;44.08;;;22.67;;
37411;SDS011;23278;52.110;6.050;2023-02-18T03:49:03;40.95;;;21.80;;
37411;SDS011;23278;52.110;6.050;2023-02-18T03:51:29;35.92;;;20.15;;
37411;SDS011;23278;52.110;6.050;2023-02-18T03:53:55;38.05;;;22.58;;
37411;SDS011;23278;52.110;6.050;2023-02-18T03:56:21;35.70;;;20.38;;
37411;SDS011;23278;52.110;6.050;2023-02-18T03:58:47;32.00;;;18.58;;
37411;SDS011;23278;52.110;6.050;2023-02-18T04:01:13;34.85;;;17.73;;
37411;SDS011;23278;52.110;6.050;2023-02-18T04:03:39;30.00;;;16.45;;
37411;SDS011;23278;52.110;6.050;2023-02-18T04:06:05;27.88;;;15.63;;
37411;SDS011;23278;52.110;6.050;2023-02-18T04:08:31;26.17;;;14.68;;
37411;SDS011;23278;52.110;6.050;2023-02-18T04:10:57;26.65;;;14.45;;
37411;SDS011;23278;52.110;6.050;2023-02-18T04:13:23;22.98;;;13.75;;
37411;SDS011;23278;52.110;6.050;2023-02-18T04:15:50;19.77;;;11.80;;
37411;SDS011;23278;52.110;6.050;2023-02-18T04:18:16;21.90;;;10.68;;
37411;SDS011;23278;52.110;6.050;2023-02-18T04:20:42;20.63;;;12.05;;
37411;SDS011;23278;52.110;6.050;2023-02-18T04:23:08;18.55;;;10.88;;
37411;SDS011;23278;52.110;6.050;2023-02-18T04:25:34;18.27;;;10.38;;
37411;SDS011;23278;52.110;6.050;2023-02-18T04:28:02;21.52;;;10.10;;
37411;SDS011;23278;52.110;6.050;2023-02-18T04:30:28;17.08;;;10.43;;
37411;SDS011;23278;52.110;6.050;2023-02-18T04:32:54;17.02;;;8.18;;
37411;SDS011;23278;52.110;6.050;2023-02-18T04:35:20;15.77;;;8.98;;
37411;SDS011;23278;52.110;6.050;2023-02-18T04:37:46;13.05;;;7.35;;
37411;SDS011;23278;52.110;6.050;2023-02-18T04:40:11;13.65;;;7.70;;
37411;SDS011;23278;52.110;6.050;2023-02-18T04:42:37;13.02;;;8.18;;
37411;SDS011;23278;52.110;6.050;2023-02-18T04:45:04;14.85;;;6.85;;
37411;SDS011;23278;52.110;6.050;2023-02-18T04:47:30;12.95;;;7.25;;
37411;SDS011;23278;52.110;6.050;2023-02-18T04:49:56;11.38;;;6.57;;
37411;SDS011;23278;52.110;6.050;2023-02-18T04:52:22;10.43;;;5.82;;
37411;SDS011;23278;52.110;6.050;2023-02-18T04:54:48;9.52;;;5.78;;
37411;SDS011;23278;52.110;6.050;2023-02-18T04:57:14;11.93;;;6.47;;
37411;SDS011;23278;52.110;6.050;2023-02-18T04:59:40;8.40;;;5.25;;
37411;SDS011;23278;52.110;6.050;2023-02-18T05:02:06;10.50;;;5.80;;
37411;SDS011;23278;52.110;6.050;2023-02-18T05:04:32;12.02;;;6.05;;
37411;SDS011;23278;52.110;6.050;2023-02-18T05:06:58;7.70;;;4.47;;
37411;SDS011;23278;52.110;6.050;2023-02-18T05:09:25;8.40;;;4.57;;
37411;SDS011;23278;52.110;6.050;2023-02-18T05:11:51;7.35;;;4.88;;
37411;SDS011;23278;52.110;6.050;2023-02-18T05:14:17;7.40;;;4.82;;
37411;SDS011;23278;52.110;6.050;2023-02-18T05:16:43;7.75;;;4.95;;
37411;SDS011;23278;52.110;6.050;2023-02-18T05:19:09;6.18;;;4.20;;
37411;SDS011;23278;52.110;6.050;2023-02-18T05:21:39;7.53;;;4.80;;
37411;SDS011;23278;52.110;6.050;2023-02-18T05:24:05;9.82;;;5.35;;
37411;SDS011;23278;52.110;6.050;2023-02-18T05:26:32;7.18;;;4.55;;
37411;SDS011;23278;52.110;6.050;2023-02-18T05:28:59;6.35;;;3.53;;
37411;SDS011;23278;52.110;6.050;2023-02-18T05:31:25;6.03;;;3.95;;
37411;SDS011;23278;52.110;6.050;2023-02-18T05:33:50;5.40;;;4.20;;
37411;SDS011;23278;52.110;6.050;2023-02-18T05:36:16;4.13;;;3.05;;
37411;SDS011;23278;52.110;6.050;2023-02-18T05:38:42;4.90;;;3.72;;
37411;SDS011;23278;52.110;6.050;2023-02-18T05:41:08;4.53;;;3.03;;
37411;SDS011;23278;52.110;6.050;2023-02-18T05:43:34;6.03;;;3.10;;
37411;SDS011;23278;52.110;6.050;2023-02-18T05:46:20;4.57;;;2.92;;
37411;SDS011;23278;52.110;6.050;2023-02-18T05:48:46;4.22;;;3.05;;
37411;SDS011;23278;52.110;6.050;2023-02-18T05:51:12;4.63;;;2.97;;
37411;SDS011;23278;52.110;6.050;2023-02-18T05:53:38;4.47;;;3.13;;
37411;SDS011;23278;52.110;6.050;2023-02-18T05:56:04;3.95;;;2.58;;
37411;SDS011;23278;52.110;6.050;2023-02-18T05:58:30;3.78;;;2.33;;
37411;SDS011;23278;52.110;6.050;2023-02-18T06:00:56;4.93;;;2.67;;
37411;SDS011;23278;52.110;6.050;2023-02-18T06:03:22;3.55;;;2.75;;
37411;SDS011;23278;52.110;6.050;2023-02-18T06:05:51;4.32;;;2.65;;
37411;SDS011;23278;52.110;6.050;2023-02-18T06:08:17;4.57;;;2.60;;
37411;SDS011;23278;52.110;6.050;2023-02-18T06:10:44;4.88;;;3.33;;
37411;SDS011;23278;52.110;6.050;2023-02-18T06:13:11;5.50;;;3.85;;
37411;SDS011;23278;52.110;6.050;2023-02-18T06:15:37;6.47;;;4.28;;
37411;SDS011;23278;52.110;6.050;2023-02-18T06:18:03;9.15;;;5.75;;
37411;SDS011;23278;52.110;6.050;2023-02-18T06:20:29;8.45;;;6.40;;
37411;SDS011;23278;52.110;6.050;2023-02-18T06:22:55;11.82;;;8.18;;
37411;SDS011;23278;52.110;6.050;2023-02-18T06:25:21;12.73;;;8.55;;
37411;SDS011;23278;52.110;6.050;2023-02-18T06:27:47;13.20;;;9.73;;
37411;SDS011;23278;52.110;6.050;2023-02-18T06:30:13;17.23;;;10.68;;
37411;SDS011;23278;52.110;6.050;2023-02-18T06:32:39;16.08;;;8.48;;
37411;SDS011;23278;52.110;6.050;2023-02-18T06:35:05;15.93;;;9.73;;
37411;SDS011;23278;52.110;6.050;2023-02-18T06:37:31;12.77;;;9.45;;
37411;SDS011;23278;52.110;6.050;2023-02-18T06:39:57;14.15;;;9.20;;
37411;SDS011;23278;52.110;6.050;2023-02-18T06:42:23;14.82;;;9.90;;
37411;SDS011;23278;52.110;6.050;2023-02-18T06:44:49;16.30;;;10.75;;
37411;SDS011;23278;52.110;6.050;2023-02-18T06:47:15;15.98;;;10.57;;
37411;SDS011;23278;52.110;6.050;2023-02-18T06:49:41;17.38;;;10.90;;
37411;SDS011;23278;52.110;6.050;2023-02-18T06:52:07;15.80;;;10.25;;
37411;SDS011;23278;52.110;6.050;2023-02-18T06:54:33;17.20;;;11.07;;
37411;SDS011;23278;52.110;6.050;2023-02-18T06:56:58;18.27;;;11.95;;
37411;SDS011;23278;52.110;6.050;2023-02-18T06:59:25;16.33;;;10.70;;
37411;SDS011;23278;52.110;6.050;2023-02-18T07:01:51;19.45;;;11.52;;
37411;SDS011;23278;52.110;6.050;2023-02-18T07:04:16;17.95;;;11.05;;
37411;SDS011;23278;52.110;6.050;2023-02-18T07:06:42;22.98;;;12.15;;
37411;SDS011;23278;52.110;6.050;2023-02-18T07:09:08;18.48;;;11.48;;
37411;SDS011;23278;52.110;6.050;2023-02-18T07:11:34;17.98;;;10.55;;
37411;SDS011;23278;52.110;6.050;2023-02-18T07:14:00;14.98;;;9.10;;
37411;SDS011;23278;52.110;6.050;2023-02-18T07:16:26;13.63;;;8.80;;
37411;SDS011;23278;52.110;6.050;2023-02-18T07:18:52;12.20;;;7.78;;
37411;SDS011;23278;52.110;6.050;2023-02-18T07:21:17;12.55;;;7.80;;
37411;SDS011;23278;52.110;6.050;2023-02-18T07:23:43;11.25;;;7.05;;
37411;SDS011;23278;52.110;6.050;2023-02-18T07:26:10;10.13;;;6.68;;
37411;SDS011;23278;52.110;6.050;2023-02-18T07:28:37;15.05;;;7.93;;
37411;SDS011;23278;52.110;6.050;2023-02-18T07:31:04;14.05;;;7.97;;
37411;SDS011;23278;52.110;6.050;2023-02-18T07:33:30;12.70;;;7.45;;
37411;SDS011;23278;52.110;6.050;2023-02-18T07:35:57;12.82;;;7.22;;
37411;SDS011;23278;52.110;6.050;2023-02-18T07:38:25;11.73;;;8.23;;
37411;SDS011;23278;52.110;6.050;2023-02-18T07:40:51;11.63;;;6.78;;
37411;SDS011;23278;52.110;6.050;2023-02-18T07:43:18;11.70;;;8.00;;
37411;SDS011;23278;52.110;6.050;2023-02-18T07:45:44;17.73;;;12.00;;
37411;SDS011;23278;52.110;6.050;2023-02-18T07:48:10;13.75;;;8.85;;
37411;SDS011;23278;52.110;6.050;2023-02-18T07:50:40;22.35;;;11.60;;
37411;SDS011;23278;52.110;6.050;2023-02-18T07:53:07;20.38;;;11.30;;
37411;SDS011;23278;52.110;6.050;2023-02-18T07:55:35;22.83;;;12.77;;
37411;SDS011;23278;52.110;6.050;2023-02-18T07:58:36;23.55;;;11.18;;
37411;SDS011;23278;52.110;6.050;2023-02-18T08:01:10;25.08;;;12.90;;
37411;SDS011;23278;52.110;6.050;2023-02-18T08:03:39;17.23;;;10.38;;
37411;SDS011;23278;52.110;6.050;2023-02-18T08:06:06;19.77;;;9.35;;
37411;SDS011;23278;52.110;6.050;2023-02-18T08:08:33;15.63;;;8.68;;
37411;SDS011;23278;52.110;6.050;2023-02-18T08:11:00;20.95;;;8.75;;
37411;SDS011;23278;52.110;6.050;2023-02-18T08:13:28;15.23;;;8.40;;
37411;SDS011;23278;52.110;6.050;2023-02-18T08:15:55;22.38;;;9.73;;
37411;SDS011;23278;52.110;6.050;2023-02-18T08:18:22;18.20;;;9.98;;
37411;SDS011;23278;52.110;6.050;2023-02-18T08:20:48;20.52;;;9.98;;
37411;SDS011;23278;52.110;6.050;2023-02-18T08:23:17;26.75;;;10.65;;
37411;SDS011;23278;52.110;6.050;2023-02-18T08:25:45;19.95;;;10.52;;
37411;SDS011;23278;52.110;6.050;2023-02-18T08:28:12;27.05;;;9.75;;
37411;SDS011;23278;52.110;6.050;2023-02-18T08:30:38;24.27;;;9.93;;
37411;SDS011;23278;52.110;6.050;2023-02-18T08:33:12;18.35;;;10.15;;
37411;SDS011;23278;52.110;6.050;2023-02-18T08:35:38;30.65;;;11.68;;
37411;SDS011;23278;52.110;6.050;2023-02-18T08:38:04;26.42;;;11.55;;
37411;SDS011;23278;52.110;6.050;2023-02-18T08:40:30;32.17;;;12.43;;
37411;SDS011;23278;52.110;6.050;2023-02-18T08:42:56;29.15;;;12.63;;
37411;SDS011;23278;52.110;6.050;2023-02-18T08:45:22;33.88;;;11.75;;
37411;SDS011;23278;52.110;6.050;2023-02-18T08:47:48;30.02;;;9.15;;
37411;SDS011;23278;52.110;6.050;2023-02-18T08:50:14;36.75;;;10.55;;
37411;SDS011;23278;52.110;6.050;2023-02-18T08:52:40;25.48;;;8.35;;
37411;SDS011;23278;52.110;6.050;2023-02-18T08:55:06;35.45;;;9.25;;
37411;SDS011;23278;52.110;6.050;2023-02-18T08:57:32;23.90;;;7.28;;
37411;SDS011;23278;52.110;6.050;2023-02-18T08:59:58;19.63;;;6.25;;
37411;SDS011;23278;52.110;6.050;2023-02-18T09:02:24;32.10;;;6.88;;
37411;SDS011;23278;52.110;6.050;2023-02-18T09:04:51;20.92;;;5.30;;
37411;SDS011;23278;52.110;6.050;2023-02-18T09:07:17;22.90;;;4.70;;
37411;SDS011;23278;52.110;6.050;2023-02-18T09:09:43;25.70;;;5.75;;
37411;SDS011;23278;52.110;6.050;2023-02-18T09:12:09;27.35;;;5.68;;
37411;SDS011;23278;52.110;6.050;2023-02-18T09:14:34;20.67;;;4.07;;
37411;SDS011;23278;52.110;6.050;2023-02-18T09:17:00;19.17;;;4.45;;
37411;SDS011;23278;52.110;6.050;2023-02-18T09:19:27;15.35;;;3.50;;
37411;SDS011;23278;52.110;6.050;2023-02-18T09:21:53;12.98;;;3.65;;
37411;SDS011;23278;52.110;6.050;2023-02-18T09:24:19;19.55;;;3.70;;
37411;SDS011;23278;52.110;6.050;2023-02-18T09:26:45;21.45;;;4.75;;
37411;SDS011;23278;52.110;6.050;2023-02-18T09:29:11;10.88;;;3.00;;
37411;SDS011;23278;52.110;6.050;2023-02-18T09:31:37;15.32;;;3.50;;
37411;SDS011;23278;52.110;6.050;2023-02-18T09:34:03;22.38;;;2.95;;
37411;SDS011;23278;52.110;6.050;2023-02-18T09:36:30;23.05;;;3.63;;
37411;SDS011;23278;52.110;6.050;2023-02-18T09:38:57;20.00;;;3.72;;
37411;SDS011;23278;52.110;6.050;2023-02-18T09:41:28;20.17;;;5.07;;
37411;SDS011;23278;52.110;6.050;2023-02-18T09:44:04;14.07;;;2.47;;
37411;SDS011;23278;52.110;6.050;2023-02-18T09:46:38;19.17;;;3.60;;
37411;SDS011;23278;52.110;6.050;2023-02-18T09:49:15;21.20;;;3.65;;
37411;SDS011;23278;52.110;6.050;2023-02-18T09:51:44;12.50;;;4.03;;
37411;SDS011;23278;52.110;6.050;2023-02-18T09:54:11;16.13;;;3.33;;
37411;SDS011;23278;52.110;6.050;2023-02-18T09:56:41;15.43;;;3.78;;
37411;SDS011;23278;52.110;6.050;2023-02-18T09:59:13;16.77;;;3.65;;
37411;SDS011;23278;52.110;6.050;2023-02-18T10:01:42;18.27;;;3.80;;
37411;SDS011;23278;52.110;6.050;2023-02-18T10:04:14;25.13;;;5.45;;
37411;SDS011;23278;52.110;6.050;2023-02-18T10:06:46;19.65;;;6.05;;
37411;SDS011;23278;52.110;6.050;2023-02-18T10:12:23;19.15;;;4.93;;
37411;SDS011;23278;52.110;6.050;2023-02-18T10:14:45;23.98;;;4.95;;
37411;SDS011;23278;52.110;6.050;2023-02-18T10:17:19;15.77;;;4.45;;
37411;SDS011;23278;52.110;6.050;2023-02-18T10:19:47;16.25;;;5.15;;
37411;SDS011;23278;52.110;6.050;2023-02-18T10:22:15;18.95;;;4.60;;
37411;SDS011;23278;52.110;6.050;2023-02-18T10:24:49;22.25;;;5.75;;
37411;SDS011;23278;52.110;6.050;2023-02-18T10:27:33;33.10;;;8.45;;
37411;SDS011;23278;52.110;6.050;2023-02-18T10:30:15;19.85;;;5.15;;
37411;SDS011;23278;52.110;6.050;2023-02-18T10:32:56;25.75;;;4.85;;
37411;SDS011;23278;52.110;6.050;2023-02-18T10:41:23;23.27;;;5.75;;
37411;SDS011;23278;52.110;6.050;2023-02-18T10:47:13;25.00;;;5.95;;
37411;SDS011;23278;52.110;6.050;2023-02-18T10:52:32;27.50;;;6.90;;
37411;SDS011;23278;52.110;6.050;2023-02-18T10:55:06;32.65;;;7.20;;
37411;SDS011;23278;52.110;6.050;2023-02-18T10:57:44;20.80;;;6.88;;
37411;SDS011;23278;52.110;6.050;2023-02-18T11:05:52;22.98;;;6.47;;
37411;SDS011;23278;52.110;6.050;2023-02-18T11:08:25;23.85;;;7.82;;
37411;SDS011;23278;52.110;6.050;2023-02-18T11:10:53;37.88;;;8.57;;
37411;SDS011;23278;52.110;6.050;2023-02-18T11:13:25;23.05;;;8.27;;
37411;SDS011;23278;52.110;6.050;2023-02-18T11:15:54;27.13;;;9.13;;
37411;SDS011;23278;52.110;6.050;2023-02-18T11:20:58;22.00;;;8.07;;
37411;SDS011;23278;52.110;6.050;2023-02-18T11:23:28;26.15;;;7.90;;
37411;SDS011;23278;52.110;6.050;2023-02-18T11:25:56;32.28;;;9.32;;
37411;SDS011;23278;52.110;6.050;2023-02-18T11:28:50;22.90;;;8.82;;
37411;SDS011;23278;52.110;6.050;2023-02-18T11:31:19;19.88;;;6.38;;
37411;SDS011;23278;52.110;6.050;2023-02-18T11:33:51;18.90;;;5.85;;
37411;SDS011;23278;52.110;6.050;2023-02-18T11:36:30;18.58;;;6.43;;
37411;SDS011;23278;52.110;6.050;2023-02-18T11:44:04;19.55;;;4.10;;
37411;SDS011;23278;52.110;6.050;2023-02-18T11:46:32;13.15;;;4.07;;
37411;SDS011;23278;52.110;6.050;2023-02-18T11:51:47;18.45;;;4.53;;
37411;SDS011;23278;52.110;6.050;2023-02-18T11:54:22;19.15;;;6.00;;
37411;SDS011;23278;52.110;6.050;2023-02-18T11:57:01;25.80;;;6.05;;
37411;SDS011;23278;52.110;6.050;2023-02-18T11:59:31;14.90;;;5.15;;
37411;SDS011;23278;52.110;6.050;2023-02-18T12:02:02;24.40;;;5.45;;
37411;SDS011;23278;52.110;6.050;2023-02-18T12:04:44;16.30;;;4.97;;
37411;SDS011;23278;52.110;6.050;2023-02-18T12:07:30;28.00;;;8.57;;
37411;SDS011;23278;52.110;6.050;2023-02-18T12:10:00;18.70;;;5.32;;
37411;SDS011;23278;52.110;6.050;2023-02-18T12:12:37;21.67;;;7.13;;
37411;SDS011;23278;52.110;6.050;2023-02-18T12:15:17;13.98;;;4.78;;
37411;SDS011;23278;52.110;6.050;2023-02-18T12:23:30;17.00;;;5.47;;
37411;SDS011;23278;52.110;6.050;2023-02-18T12:26:25;16.48;;;7.05;;
37411;SDS011;23278;52.110;6.050;2023-02-18T12:31:58;16.02;;;6.07;;
37411;SDS011;23278;52.110;6.050;2023-02-18T12:42:48;19.08;;;5.35;;
37411;SDS011;23278;52.110;6.050;2023-02-18T12:53:44;23.25;;;5.43;;
37411;SDS011;23278;52.110;6.050;2023-02-18T13:01:47;19.55;;;5.97;;
37411;SDS011;23278;52.110;6.050;2023-02-18T13:04:23;13.88;;;5.93;;
37411;SDS011;23278;52.110;6.050;2023-02-18T13:15:32;13.73;;;5.68;;
37411;SDS011;23278;52.110;6.050;2023-02-18T13:18:03;13.68;;;4.93;;
37411;SDS011;23278;52.110;6.050;2023-02-18T13:20:39;20.27;;;6.32;;
37411;SDS011;23278;52.110;6.050;2023-02-18T13:23:17;19.10;;;4.80;;
37411;SDS011;23278;52.110;6.050;2023-02-18T13:25:46;15.98;;;5.35;;
37411;SDS011;23278;52.110;6.050;2023-02-18T13:33:55;13.18;;;4.93;;
37411;SDS011;23278;52.110;6.050;2023-02-18T13:39:08;19.13;;;5.88;;
37411;SDS011;23278;52.110;6.050;2023-02-18T13:41:43;16.23;;;5.20;;
37411;SDS011;23278;52.110;6.050;2023-02-18T13:46:54;15.45;;;5.15;;
37411;SDS011;23278;52.110;6.050;2023-02-18T13:49:25;12.90;;;6.07;;
37411;SDS011;23278;52.110;6.050;2023-02-18T13:52:00;14.52;;;4.57;;
37411;SDS011;23278;52.110;6.050;2023-02-18T13:55:01;12.48;;;5.03;;
37411;SDS011;23278;52.110;6.050;2023-02-18T13:57:20;15.35;;;5.05;;
37411;SDS011;23278;52.110;6.050;2023-02-18T13:59:52;21.77;;;4.78;;
37411;SDS011;23278;52.110;6.050;2023-02-18T14:04:55;17.40;;;5.18;;
37411;SDS011;23278;52.110;6.050;2023-02-18T14:07:50;20.30;;;5.07;;
37411;SDS011;23278;52.110;6.050;2023-02-18T14:10:30;16.88;;;4.28;;
37411;SDS011;23278;52.110;6.050;2023-02-18T14:33:36;16.60;;;4.65;;
37411;SDS011;23278;52.110;6.050;2023-02-18T14:41:46;24.88;;;5.40;;
37411;SDS011;23278;52.110;6.050;2023-02-18T14:49:42;7.93;;;3.40;;
37411;SDS011;23278;52.110;6.050;2023-02-18T14:52:32;13.95;;;4.47;;
37411;SDS011;23278;52.110;6.050;2023-02-18T14:55:10;11.57;;;3.95;;
37411;SDS011;23278;52.110;6.050;2023-02-18T14:58:20;5.88;;;2.97;;
37411;SDS011;23278;52.110;6.050;2023-02-18T15:00:52;9.38;;;2.80;;
37411;SDS011;23278;52.110;6.050;2023-02-18T15:03:18;9.05;;;3.00;;
37411;SDS011;23278;52.110;6.050;2023-02-18T15:05:47;8.57;;;3.75;;
37411;SDS011;23278;52.110;6.050;2023-02-18T15:10:47;4.57;;;1.67;;
37411;SDS011;23278;52.110;6.050;2023-02-18T15:13:32;5.80;;;1.90;;
37411;SDS011;23278;52.110;6.050;2023-02-18T15:16:08;9.02;;;2.97;;
37411;SDS011;23278;52.110;6.050;2023-02-18T15:18:44;4.28;;;1.48;;
37411;SDS011;23278;52.110;6.050;2023-02-18T15:21:19;8.57;;;2.13;;
37411;SDS011;23278;52.110;6.050;2023-02-18T15:23:52;5.60;;;1.70;;
37411;SDS011;23278;52.110;6.050;2023-02-18T15:26:18;7.97;;;2.20;;
37411;SDS011;23278;52.110;6.050;2023-02-18T15:28:57;5.60;;;1.42;;
37411;SDS011;23278;52.110;6.050;2023-02-18T15:31:30;4.40;;;2.03;;
37411;SDS011;23278;52.110;6.050;2023-02-18T15:34:01;9.70;;;3.17;;
37411;SDS011;23278;52.110;6.050;2023-02-18T15:36:28;10.35;;;2.42;;
37411;SDS011;23278;52.110;6.050;2023-02-18T15:38:56;7.70;;;2.05;;
37411;SDS011;23278;52.110;6.050;2023-02-18T15:41:22;3.58;;;1.30;;
37411;SDS011;23278;52.110;6.050;2023-02-18T15:44:06;5.78;;;2.53;;
37411;SDS011;23278;52.110;6.050;2023-02-18T15:46:33;8.65;;;2.42;;
37411;SDS011;23278;52.110;6.050;2023-02-18T15:48:59;7.88;;;2.85;;
37411;SDS011;23278;52.110;6.050;2023-02-18T15:51:26;4.82;;;1.75;;
37411;SDS011;23278;52.110;6.050;2023-02-18T15:53:58;5.22;;;2.33;;
37411;SDS011;23278;52.110;6.050;2023-02-18T15:56:31;8.27;;;3.47;;
37411;SDS011;23278;52.110;6.050;2023-02-18T15:59:09;9.68;;;3.28;;
37411;SDS011;23278;52.110;6.050;2023-02-18T16:02:03;17.67;;;4.63;;
37411;SDS011;23278;52.110;6.050;2023-02-18T16:04:33;16.70;;;4.22;;
37411;SDS011;23278;52.110;6.050;2023-02-18T16:07:14;15.98;;;4.30;;
37411;SDS011;23278;52.110;6.050;2023-02-18T16:09:46;14.95;;;4.20;;
37411;SDS011;23278;52.110;6.050;2023-02-18T16:12:33;19.88;;;4.63;;
37411;SDS011;23278;52.110;6.050;2023-02-18T16:15:00;11.55;;;4.47;;
37411;SDS011;23278;52.110;6.050;2023-02-18T16:17:27;12.65;;;4.53;;
37411;SDS011;23278;52.110;6.050;2023-02-18T16:19:55;14.60;;;5.40;;
37411;SDS011;23278;52.110;6.050;2023-02-18T16:22:33;17.25;;;5.68;;
37411;SDS011;23278;52.110;6.050;2023-02-18T16:25:23;10.80;;;4.45;;
37411;SDS011;23278;52.110;6.050;2023-02-18T16:32:49;20.15;;;5.35;;
37411;SDS011;23278;52.110;6.050;2023-02-18T16:35:16;23.00;;;5.88;;
37411;SDS011;23278;52.110;6.050;2023-02-18T16:37:43;19.02;;;7.82;;
37411;SDS011;23278;52.110;6.050;2023-02-18T16:42:40;19.83;;;6.55;;
37411;SDS011;23278;52.110;6.050;2023-02-18T16:45:10;19.10;;;6.40;;
37411;SDS011;23278;52.110;6.050;2023-02-18T16:47:37;13.30;;;6.75;;
37411;SDS011;23278;52.110;6.050;2023-02-18T16:50:03;16.83;;;6.60;;
37411;SDS011;23278;52.110;6.050;2023-02-18T16:52:30;16.25;;;6.60;;
37411;SDS011;23278;52.110;6.050;2023-02-18T16:54:56;12.25;;;5.75;;
37411;SDS011;23278;52.110;6.050;2023-02-18T16:57:22;16.77;;;6.75;;
37411;SDS011;23278;52.110;6.050;2023-02-18T16:59:48;12.65;;;6.90;;
37411;SDS011;23278;52.110;6.050;2023-02-18T17:02:18;16.25;;;6.55;;
37411;SDS011;23278;52.110;6.050;2023-02-18T17:04:46;17.92;;;7.85;;
37411;SDS011;23278;52.110;6.050;2023-02-18T17:07:12;24.02;;;8.07;;
37411;SDS011;23278;52.110;6.050;2023-02-18T17:09:38;18.35;;;7.93;;
37411;SDS011;23278;52.110;6.050;2023-02-18T17:12:04;15.73;;;6.75;;
37411;SDS011;23278;52.110;6.050;2023-02-18T17:14:30;22.63;;;6.47;;
37411;SDS011;23278;52.110;6.050;2023-02-18T17:16:56;17.10;;;7.60;;
37411;SDS011;23278;52.110;6.050;2023-02-18T17:19:22;14.88;;;8.18;;
37411;SDS011;23278;52.110;6.050;2023-02-18T17:21:48;23.63;;;7.50;;
37411;SDS011;23278;52.110;6.050;2023-02-18T17:24:15;17.05;;;8.93;;
37411;SDS011;23278;52.110;6.050;2023-02-18T17:26:42;25.80;;;8.43;;
37411;SDS011;23278;52.110;6.050;2023-02-18T17:29:08;13.23;;;8.35;;
37411;SDS011;23278;52.110;6.050;2023-02-18T17:31:35;19.33;;;8.23;;
37411;SDS011;23278;52.110;6.050;2023-02-18T17:34:06;19.35;;;7.90;;
37411;SDS011;23278;52.110;6.050;2023-02-18T17:36:34;21.50;;;9.23;;